createdAt,value
2022-12-11T00:00:10.474Z,944.58
2022-12-11T00:01:10.455Z,944.58
2022-12-11T00:02:10.465Z,944.59
2022-12-11T00:03:15.555Z,944.58
2022-12-11T00:04:10.414Z,944.62
2022-12-11T00:05:10.691Z,944.6
2022-12-11T00:06:10.344Z,944.63
2022-12-11T00:07:10.325Z,944.6
2022-12-11T00:08:10.328Z,944.6
2022-12-11T00:09:10.287Z,944.57
2022-12-11T00:10:10.257Z,944.58
2022-12-11T00:11:10.239Z,944.58
2022-12-11T00:12:10.216Z,944.6
2022-12-11T00:13:10.196Z,944.58
2022-12-11T00:14:10.175Z,944.59
2022-12-11T00:15:10.459Z,944.58
2022-12-11T00:16:10.191Z,944.57
2022-12-11T00:17:10.229Z,944.54
2022-12-11T00:18:10.091Z,944.53
2022-12-11T00:19:10.068Z,944.51
2022-12-11T00:20:10.073Z,944.52
2022-12-11T00:21:10.030Z,944.5
2022-12-11T00:22:10.005Z,944.43
2022-12-11T00:23:09.982Z,944.43
2022-12-11T00:24:09.962Z,944.4
2022-12-11T00:25:10.118Z,944.45
2022-12-11T00:26:09.920Z,944.44
2022-12-11T00:27:09.895Z,944.49
2022-12-11T00:28:09.874Z,944.48
2022-12-11T00:29:09.852Z,944.46
2022-12-11T00:30:09.832Z,944.47
2022-12-11T00:31:09.810Z,944.47
2022-12-11T00:32:09.826Z,944.45
2022-12-11T00:33:09.767Z,944.4
2022-12-11T00:34:09.749Z,944.42
2022-12-11T00:35:10.035Z,944.44
2022-12-11T00:36:09.735Z,944.44
2022-12-11T00:37:09.715Z,944.42
2022-12-11T00:38:09.663Z,944.43
2022-12-11T00:39:09.640Z,944.41
2022-12-11T00:40:09.623Z,944.45
2022-12-11T00:41:09.597Z,944.4
2022-12-11T00:42:09.578Z,944.44
2022-12-11T00:43:09.554Z,944.42
2022-12-11T00:44:09.535Z,944.4
2022-12-11T00:45:09.742Z,944.44
2022-12-11T00:46:09.532Z,944.43
2022-12-11T00:47:09.469Z,944.44
2022-12-11T00:48:09.449Z,944.44
2022-12-11T00:49:09.427Z,944.46
2022-12-11T00:50:09.407Z,944.46
2022-12-11T00:51:09.385Z,944.45
2022-12-11T00:52:09.391Z,944.48
2022-12-11T00:53:09.342Z,944.46
2022-12-11T00:54:09.320Z,944.49
2022-12-11T00:55:09.663Z,944.48
2022-12-11T00:56:09.279Z,944.45
2022-12-11T00:57:09.262Z,944.42
2022-12-11T00:58:09.242Z,944.47
2022-12-11T00:59:09.216Z,944.48
2022-12-11T01:00:09.192Z,944.46
2022-12-11T01:01:09.236Z,944.47
2022-12-11T01:02:09.148Z,944.51
2022-12-11T01:03:09.135Z,944.49
2022-12-11T01:04:09.109Z,944.51
2022-12-11T01:05:09.392Z,944.55
2022-12-11T01:06:09.064Z,944.54
2022-12-11T01:07:09.041Z,944.6
2022-12-11T01:08:09.144Z,944.62
2022-12-11T01:09:08.998Z,944.66
2022-12-11T01:10:09.002Z,944.66
2022-12-11T01:11:08.956Z,944.68
2022-12-11T01:12:08.933Z,944.64
2022-12-11T01:13:08.914Z,944.68
2022-12-11T01:14:08.890Z,944.73
2022-12-11T01:15:09.187Z,944.69
2022-12-11T01:16:08.849Z,944.74
2022-12-11T01:17:08.831Z,944.7
2022-12-11T01:18:08.803Z,944.73
2022-12-11T01:19:08.786Z,944.7
2022-12-11T01:20:08.761Z,944.72
2022-12-11T01:21:08.742Z,944.69
2022-12-11T01:22:08.718Z,944.74
2022-12-11T01:23:08.698Z,944.71
2022-12-11T01:24:08.700Z,944.71
2022-12-11T01:25:08.942Z,944.7
2022-12-11T01:26:08.633Z,944.69
2022-12-11T01:27:08.612Z,944.79
2022-12-11T01:28:08.590Z,944.78
2022-12-11T01:29:08.569Z,944.76
2022-12-11T01:30:08.550Z,944.78
2022-12-11T01:31:08.564Z,944.76
2022-12-11T01:32:08.503Z,944.79
2022-12-11T01:33:08.485Z,944.81
2022-12-11T01:34:08.462Z,944.8
2022-12-11T01:35:08.716Z,944.83
2022-12-11T01:36:08.421Z,944.79
2022-12-11T01:37:08.399Z,944.81
2022-12-11T01:38:08.374Z,944.79
2022-12-11T01:39:08.354Z,944.79
2022-12-11T01:40:08.334Z,944.8
2022-12-11T01:41:13.371Z,944.81
2022-12-11T01:42:08.316Z,944.79
2022-12-11T01:43:08.270Z,944.74
2022-12-11T01:44:08.245Z,944.79
2022-12-11T01:45:08.396Z,944.77
2022-12-11T01:46:08.238Z,944.81
2022-12-11T01:47:08.185Z,944.76
2022-12-11T01:48:08.158Z,944.77
2022-12-11T01:49:08.144Z,944.77
2022-12-11T01:50:08.116Z,944.77
2022-12-11T01:51:08.096Z,944.78
2022-12-11T01:52:08.072Z,944.79
2022-12-11T01:53:08.053Z,944.78
2022-12-11T01:54:08.032Z,944.74
2022-12-11T01:55:08.307Z,944.74
2022-12-11T01:56:07.986Z,944.78
2022-12-11T01:57:07.966Z,944.75
2022-12-11T01:58:07.987Z,944.72
2022-12-11T01:59:07.923Z,944.72
2022-12-11T02:00:07.904Z,944.72
2022-12-11T02:01:07.957Z,944.72
2022-12-11T02:02:07.886Z,944.71
2022-12-11T02:03:07.834Z,944.71
2022-12-11T02:04:07.814Z,944.7
2022-12-11T02:05:08.058Z,944.71
2022-12-11T02:06:07.772Z,944.76
2022-12-11T02:07:07.749Z,944.73
2022-12-11T02:08:07.757Z,944.68
2022-12-11T02:09:07.705Z,944.72
2022-12-11T02:10:07.688Z,944.74
2022-12-11T02:11:07.662Z,944.67
2022-12-11T02:12:07.643Z,944.73
2022-12-11T02:13:07.620Z,944.72
2022-12-11T02:14:07.624Z,944.68
2022-12-11T02:15:07.848Z,944.65
2022-12-11T02:16:07.604Z,944.67
2022-12-11T02:17:07.533Z,944.68
2022-12-11T02:18:07.520Z,944.66
2022-12-11T02:19:07.489Z,944.67
2022-12-11T02:20:07.468Z,944.69
2022-12-11T02:21:07.446Z,944.62
2022-12-11T02:22:07.427Z,944.71
2022-12-11T02:23:07.407Z,944.67
2022-12-11T02:24:07.382Z,944.73
2022-12-11T02:25:07.560Z,944.74
2022-12-11T02:26:07.338Z,944.7
2022-12-11T02:27:07.316Z,944.67
2022-12-11T02:28:07.297Z,944.74
2022-12-11T02:29:07.274Z,944.79
2022-12-11T02:30:07.281Z,944.74
2022-12-11T02:31:07.317Z,944.66
2022-12-11T02:32:07.210Z,944.71
2022-12-11T02:33:07.185Z,944.62
2022-12-11T02:34:07.167Z,944.62
2022-12-11T02:35:07.144Z,944.62
2022-12-11T02:36:07.123Z,944.63
2022-12-11T02:37:07.100Z,944.52
2022-12-11T02:38:07.078Z,944.59
2022-12-11T02:39:07.063Z,944.58
2022-12-11T02:40:07.034Z,944.6
2022-12-11T02:41:07.013Z,944.61
2022-12-11T02:42:06.993Z,944.6
2022-12-11T02:43:06.968Z,944.57
2022-12-11T02:44:06.947Z,944.6
2022-12-11T02:45:06.924Z,944.59
2022-12-11T02:46:06.977Z,944.58
2022-12-11T02:47:06.884Z,944.62
2022-12-11T02:48:06.861Z,944.62
2022-12-11T02:49:06.841Z,944.63
2022-12-11T02:50:06.819Z,944.63
2022-12-11T02:51:06.795Z,944.61
2022-12-11T02:52:06.773Z,944.66
2022-12-11T02:53:06.756Z,944.67
2022-12-11T02:54:06.728Z,944.65
2022-12-11T02:55:06.713Z,944.69
2022-12-11T02:56:06.687Z,944.65
2022-12-11T02:57:06.669Z,944.66
2022-12-11T02:58:06.642Z,944.67
2022-12-11T02:59:06.623Z,944.67
2022-12-11T03:00:06.601Z,944.68
2022-12-11T03:01:06.629Z,944.65
2022-12-11T03:02:06.630Z,944.64
2022-12-11T03:03:06.535Z,944.6
2022-12-11T03:04:06.513Z,944.61
2022-12-11T03:05:06.492Z,944.6
2022-12-11T03:06:06.469Z,944.61
2022-12-11T03:07:06.450Z,944.63
2022-12-11T03:08:06.502Z,944.64
2022-12-11T03:09:06.406Z,944.62
2022-12-11T03:10:06.385Z,944.61
2022-12-11T03:11:06.363Z,944.6
2022-12-11T03:12:06.340Z,944.6
2022-12-11T03:13:06.318Z,944.6
2022-12-11T03:14:06.309Z,944.6
2022-12-11T03:15:06.278Z,944.58
2022-12-11T03:16:06.281Z,944.56
2022-12-11T03:17:06.233Z,944.61
2022-12-11T03:18:06.248Z,944.56
2022-12-11T03:19:06.191Z,944.57
2022-12-11T03:20:06.166Z,944.59
2022-12-11T03:21:06.149Z,944.58
2022-12-11T03:22:06.121Z,944.53
2022-12-11T03:23:06.102Z,944.55
2022-12-11T03:24:06.078Z,944.57
2022-12-11T03:25:06.057Z,944.59
2022-12-11T03:26:06.041Z,944.56
2022-12-11T03:27:10.930Z,944.55
2022-12-11T03:28:05.991Z,944.55
2022-12-11T03:29:05.972Z,944.56
2022-12-11T03:30:05.950Z,944.56
2022-12-11T03:31:05.976Z,944.53
2022-12-11T03:32:05.907Z,944.56
2022-12-11T03:49:40.142Z,944.52
2022-12-11T03:50:40.089Z,944.52
2022-12-11T03:51:40.067Z,944.58
2022-12-11T03:52:45.484Z,944.59
2022-12-11T03:53:40.025Z,944.63
2022-12-11T03:54:39.997Z,944.6
2022-12-11T03:55:39.984Z,944.58
2022-12-11T03:56:39.958Z,944.61
2022-12-11T03:57:39.933Z,944.62
2022-12-11T03:58:39.907Z,944.56
2022-12-11T03:59:39.886Z,944.61
2022-12-11T04:00:39.862Z,944.57
2022-12-11T04:01:39.980Z,944.6
2022-12-11T04:02:39.818Z,944.61
2022-12-11T04:03:39.802Z,944.64
2022-12-11T04:04:39.854Z,944.61
2022-12-11T04:05:39.779Z,944.63
2022-12-11T04:06:39.730Z,944.67
2022-12-11T04:07:39.708Z,944.68
2022-12-11T04:08:39.685Z,944.66
2022-12-11T04:09:39.664Z,944.68
2022-12-11T04:10:39.643Z,944.62
2022-12-11T04:11:39.658Z,944.65
2022-12-11T04:12:39.596Z,944.68
2022-12-11T04:13:39.576Z,944.7
2022-12-11T04:14:39.555Z,944.74
2022-12-11T04:15:39.607Z,944.68
2022-12-11T04:16:39.512Z,944.69
2022-12-11T04:17:39.489Z,944.68
2022-12-11T04:18:39.464Z,944.71
2022-12-11T04:19:39.445Z,944.66
2022-12-11T04:20:39.429Z,944.71
2022-12-11T04:21:39.979Z,944.7
2022-12-11T04:22:39.377Z,944.78
2022-12-11T04:23:39.357Z,944.72
2022-12-11T04:24:39.333Z,944.77
2022-12-11T04:25:39.316Z,944.75
2022-12-11T04:26:39.288Z,944.78
2022-12-11T04:27:39.268Z,944.75
2022-12-11T04:28:39.245Z,944.74
2022-12-11T04:29:39.226Z,944.69
2022-12-11T04:30:39.201Z,944.75
2022-12-11T04:31:39.186Z,944.73
2022-12-11T04:32:39.157Z,944.75
2022-12-11T04:33:39.185Z,944.72
2022-12-11T04:34:39.116Z,944.71
2022-12-11T04:35:39.093Z,944.75
2022-12-11T04:36:39.071Z,944.71
2022-12-11T04:37:39.076Z,944.7
2022-12-11T04:38:39.028Z,944.68
2022-12-11T04:39:39.008Z,944.66
2022-12-11T04:40:38.985Z,944.66
2022-12-11T04:41:38.960Z,944.7
2022-12-11T04:42:38.943Z,944.67
2022-12-11T04:43:38.916Z,944.65
2022-12-11T04:44:38.896Z,944.65
2022-12-11T04:45:38.875Z,944.64
2022-12-11T04:46:38.910Z,944.6
2022-12-11T04:47:38.831Z,944.62
2022-12-11T04:48:38.807Z,944.62
2022-12-11T04:49:38.786Z,944.57
2022-12-11T04:50:38.764Z,944.55
2022-12-11T04:51:38.742Z,944.57
2022-12-11T04:52:38.721Z,944.57
2022-12-11T04:53:38.720Z,944.52
2022-12-11T04:54:38.676Z,944.52
2022-12-11T04:55:38.655Z,944.5
2022-12-11T04:56:38.632Z,944.55
2022-12-11T04:57:38.608Z,944.51
2022-12-11T04:58:38.588Z,944.52
2022-12-11T04:59:38.567Z,944.48
2022-12-11T05:00:38.547Z,944.55
2022-12-11T05:01:38.619Z,944.5
2022-12-11T05:02:38.555Z,944.48
2022-12-11T05:03:38.477Z,944.53
2022-12-11T05:04:38.456Z,944.47
2022-12-11T05:05:38.439Z,944.47
2022-12-11T05:06:38.414Z,944.43
2022-12-11T05:07:38.391Z,944.46
2022-12-11T05:08:38.370Z,944.45
2022-12-11T05:09:38.372Z,944.36
2022-12-11T05:10:38.328Z,944.43
2022-12-11T05:11:38.301Z,944.39
2022-12-11T05:12:38.960Z,944.39
2022-12-11T05:13:38.933Z,944.39
2022-12-11T05:14:38.913Z,944.41
2022-12-11T05:15:38.956Z,944.36
2022-12-11T05:16:38.868Z,944.41
2022-12-11T05:17:38.844Z,944.43
2022-12-11T05:18:38.824Z,944.4
2022-12-11T05:19:38.801Z,944.39
2022-12-11T05:20:38.780Z,944.43
2022-12-11T05:21:38.758Z,944.39
2022-12-11T05:22:38.737Z,944.39
2022-12-11T05:23:38.713Z,944.41
2022-12-11T05:24:38.691Z,944.44
2022-12-11T05:25:38.690Z,944.42
2022-12-11T05:26:38.648Z,944.4
2022-12-11T05:27:38.626Z,944.44
2022-12-11T05:28:38.607Z,944.36
2022-12-11T05:29:38.588Z,944.44
2022-12-11T05:30:38.564Z,944.42
2022-12-11T05:31:38.570Z,944.37
2022-12-11T05:32:38.516Z,944.38
2022-12-11T05:33:38.496Z,944.4
2022-12-11T05:34:38.473Z,944.39
2022-12-11T05:35:38.454Z,944.35
2022-12-11T05:36:38.428Z,944.33
2022-12-11T05:37:38.410Z,944.33
2022-12-11T05:38:38.385Z,944.36
2022-12-11T05:39:38.373Z,944.32
2022-12-11T05:40:38.344Z,944.35
2022-12-11T05:41:38.346Z,944.32
2022-12-11T05:42:38.298Z,944.38
2022-12-11T05:43:38.277Z,944.33
2022-12-11T05:44:38.256Z,944.33
2022-12-11T05:45:38.234Z,944.37
2022-12-11T05:46:38.220Z,944.37
2022-12-11T05:47:38.192Z,944.37
2022-12-11T05:48:38.180Z,944.34
2022-12-11T05:49:38.148Z,944.31
2022-12-11T05:50:38.125Z,944.29
2022-12-11T05:51:38.103Z,944.34
2022-12-11T05:52:38.080Z,944.35
2022-12-11T05:53:38.067Z,944.3
2022-12-11T05:54:38.036Z,944.33
2022-12-11T05:55:38.017Z,944.32
2022-12-11T05:56:37.994Z,944.3
2022-12-11T05:57:37.997Z,944.32
2022-12-11T05:58:37.950Z,944.36
2022-12-11T05:59:37.932Z,944.32
2022-12-11T06:00:37.908Z,944.32
2022-12-11T06:01:37.973Z,944.29
2022-12-11T06:02:38.034Z,944.3
2022-12-11T06:03:37.846Z,944.28
2022-12-11T06:04:37.826Z,944.32
2022-12-11T06:05:37.800Z,944.31
2022-12-11T06:06:37.776Z,944.3
2022-12-11T06:07:37.760Z,944.35
2022-12-11T06:08:37.732Z,944.33
2022-12-11T06:09:37.713Z,944.35
2022-12-11T06:10:37.692Z,944.36
2022-12-11T06:11:37.741Z,944.34
2022-12-11T06:12:37.649Z,944.31
2022-12-11T06:13:37.648Z,944.36
2022-12-11T06:14:37.604Z,944.34
2022-12-11T06:15:37.582Z,944.3
2022-12-11T06:16:37.578Z,944.34
2022-12-11T06:17:37.542Z,944.35
2022-12-11T06:18:37.515Z,944.34
2022-12-11T06:19:37.493Z,944.35
2022-12-11T06:20:37.473Z,944.36
2022-12-11T06:21:37.454Z,944.33
2022-12-11T06:22:37.429Z,944.32
2022-12-11T06:23:37.405Z,944.33
2022-12-11T06:24:37.384Z,944.32
2022-12-11T06:25:37.363Z,944.37
2022-12-11T06:26:37.341Z,944.37
2022-12-11T06:27:37.317Z,944.37
2022-12-11T06:28:37.296Z,944.38
2022-12-11T06:29:37.299Z,944.38
2022-12-11T06:30:37.342Z,944.43
2022-12-11T06:31:37.291Z,944.39
2022-12-11T06:32:37.213Z,944.41
2022-12-11T06:33:37.189Z,944.42
2022-12-11T06:34:37.166Z,944.45
2022-12-11T06:35:41.897Z,944.43
2022-12-11T06:36:37.123Z,944.44
2022-12-11T06:37:37.100Z,944.44
2022-12-11T06:38:37.083Z,944.47
2022-12-11T06:39:37.055Z,944.45
2022-12-11T06:40:37.037Z,944.48
2022-12-11T06:41:37.012Z,944.41
2022-12-11T06:42:36.992Z,944.44
2022-12-11T06:43:36.974Z,944.47
2022-12-11T06:44:36.948Z,944.47
2022-12-11T06:45:36.982Z,944.43
2022-12-11T06:46:36.905Z,944.45
2022-12-11T06:47:36.880Z,944.45
2022-12-11T06:48:36.863Z,944.42
2022-12-11T06:49:36.839Z,944.45
2022-12-11T06:50:36.816Z,944.44
2022-12-11T06:51:36.793Z,944.45
2022-12-11T06:52:36.773Z,944.44
2022-12-11T06:53:36.751Z,944.44
2022-12-11T06:54:36.730Z,944.48
2022-12-11T06:55:36.712Z,944.51
2022-12-11T06:56:36.690Z,944.53
2022-12-11T06:57:36.661Z,944.52
2022-12-11T06:58:36.645Z,944.52
2022-12-11T06:59:36.618Z,944.54
2022-12-11T07:00:36.644Z,944.55
2022-12-11T07:01:36.601Z,944.55
2022-12-11T07:02:36.644Z,944.6
2022-12-11T07:03:36.529Z,944.54
2022-12-11T07:04:36.511Z,944.53
2022-12-11T07:05:36.486Z,944.52
2022-12-11T07:06:36.468Z,944.55
2022-12-11T07:07:36.648Z,944.57
2022-12-11T07:08:36.420Z,944.56
2022-12-11T07:09:36.411Z,944.59
2022-12-11T07:10:36.376Z,944.59
2022-12-11T07:11:36.353Z,944.55
2022-12-11T07:12:36.343Z,944.6
2022-12-11T07:13:36.311Z,944.59
2022-12-11T07:14:36.288Z,944.59
2022-12-11T07:15:40.196Z,944.61
2022-12-11T07:16:36.282Z,944.57
2022-12-11T07:17:36.251Z,944.59
2022-12-11T07:18:36.200Z,944.58
2022-12-11T07:19:36.182Z,944.6
2022-12-11T07:20:36.159Z,944.6
2022-12-11T07:21:36.137Z,944.57
2022-12-11T07:22:36.112Z,944.57
2022-12-11T07:23:36.092Z,944.62
2022-12-11T07:24:36.070Z,944.54
2022-12-11T07:25:36.048Z,944.56
2022-12-11T07:26:36.024Z,944.55
2022-12-11T07:27:36.005Z,944.53
2022-12-11T07:28:35.985Z,944.61
2022-12-11T07:29:35.965Z,944.58
2022-12-11T07:30:35.939Z,944.62
2022-12-11T07:31:35.954Z,944.64
2022-12-11T07:32:35.941Z,944.67
2022-12-11T07:33:35.897Z,944.67
2022-12-11T07:34:35.855Z,944.74
2022-12-11T07:35:35.830Z,944.75
2022-12-11T07:36:35.808Z,944.73
2022-12-11T07:37:35.786Z,944.74
2022-12-11T07:38:35.770Z,944.7
2022-12-11T07:39:35.742Z,944.73
2022-12-11T07:40:35.734Z,944.7
2022-12-11T07:41:35.701Z,944.71
2022-12-11T07:42:35.675Z,944.74
2022-12-11T07:43:35.655Z,944.74
2022-12-11T07:44:35.632Z,944.76
2022-12-11T07:45:35.654Z,944.74
2022-12-11T07:46:35.589Z,944.72
2022-12-11T07:47:35.567Z,944.69
2022-12-11T07:48:35.548Z,944.72
2022-12-11T07:49:35.551Z,944.72
2022-12-11T07:50:39.709Z,944.75
2022-12-11T07:51:35.511Z,944.75
2022-12-11T07:52:35.457Z,944.72
2022-12-11T07:53:35.439Z,944.71
2022-12-11T07:54:35.415Z,944.74
2022-12-11T07:55:35.393Z,944.75
2022-12-11T07:56:35.372Z,944.75
2022-12-11T07:57:35.350Z,944.74
2022-12-11T07:58:35.327Z,944.71
2022-12-11T07:59:35.306Z,944.71
2022-12-11T08:00:35.288Z,944.68
2022-12-11T08:01:35.291Z,944.72
2022-12-11T08:02:37.293Z,944.67
2022-12-11T08:03:35.419Z,944.69
2022-12-11T08:04:35.198Z,944.68
2022-12-11T08:05:35.196Z,944.64
2022-12-11T08:06:35.154Z,944.69
2022-12-11T08:07:35.130Z,944.71
2022-12-11T08:08:35.110Z,944.72
2022-12-11T08:09:35.085Z,944.73
2022-12-11T08:10:35.067Z,944.76
2022-12-11T08:11:35.042Z,944.75
2022-12-11T08:12:35.021Z,944.77
2022-12-11T08:13:35.001Z,944.71
2022-12-11T08:14:34.977Z,944.73
2022-12-11T08:15:34.954Z,944.73
2022-12-11T08:16:34.946Z,944.72
2022-12-11T08:17:39.784Z,944.75
2022-12-11T08:18:34.892Z,944.74
2022-12-11T08:19:34.869Z,944.68
2022-12-11T08:20:34.847Z,944.73
2022-12-11T08:21:34.850Z,944.72
2022-12-11T08:22:34.807Z,944.72
2022-12-11T08:23:34.783Z,944.74
2022-12-11T08:24:34.761Z,944.74
2022-12-11T08:25:34.736Z,944.72
2022-12-11T08:26:34.720Z,944.66
2022-12-11T08:27:34.692Z,944.69
2022-12-11T08:28:34.673Z,944.63
2022-12-11T08:29:34.649Z,944.64
2022-12-11T08:30:34.766Z,944.63
2022-12-11T08:31:34.611Z,944.66
2022-12-11T08:32:34.633Z,944.67
2022-12-11T08:33:34.564Z,944.61
2022-12-11T08:34:34.543Z,944.65
2022-12-11T08:35:34.519Z,944.71
2022-12-11T08:36:34.500Z,944.72
2022-12-11T08:37:34.502Z,944.68
2022-12-11T08:38:34.458Z,944.76
2022-12-11T08:39:34.433Z,944.7
2022-12-11T08:40:34.412Z,944.68
2022-12-11T08:41:34.390Z,944.71
2022-12-11T08:42:34.368Z,944.74
2022-12-11T08:43:34.345Z,944.69
2022-12-11T08:44:34.325Z,944.72
2022-12-11T08:45:34.308Z,944.71
2022-12-11T08:46:34.384Z,944.68
2022-12-11T08:47:34.259Z,944.74
2022-12-11T08:48:34.239Z,944.72
2022-12-11T08:49:34.783Z,944.77
2022-12-11T08:50:34.199Z,944.72
2022-12-11T08:51:34.171Z,944.74
2022-12-11T08:52:34.152Z,944.77
2022-12-11T08:53:34.154Z,944.68
2022-12-11T08:54:34.111Z,944.73
2022-12-11T08:55:34.084Z,944.7
2022-12-11T08:56:34.063Z,944.72
2022-12-11T08:57:34.042Z,944.74
2022-12-11T08:58:34.021Z,944.72
2022-12-11T08:59:34.003Z,944.72
2022-12-11T09:00:33.977Z,944.7
2022-12-11T09:01:33.989Z,944.68
2022-12-11T09:02:33.987Z,944.68
2022-12-11T09:03:33.920Z,944.66
2022-12-11T09:04:33.892Z,944.71
2022-12-11T09:05:33.873Z,944.73
2022-12-11T09:06:33.851Z,944.7
2022-12-11T09:07:33.828Z,944.71
2022-12-11T09:08:33.805Z,944.67
2022-12-11T09:09:33.978Z,944.68
2022-12-11T09:10:33.932Z,944.66
2022-12-11T09:11:33.914Z,944.69
2022-12-11T09:12:33.889Z,944.7
2022-12-11T09:13:33.870Z,944.73
2022-12-11T09:14:33.854Z,944.68
2022-12-11T09:15:33.876Z,944.68
2022-12-11T09:16:33.807Z,944.71
2022-12-11T09:17:33.783Z,944.7
2022-12-11T09:18:33.758Z,944.71
2022-12-11T09:19:33.743Z,944.68
2022-12-11T09:20:33.717Z,944.69
2022-12-11T09:21:33.698Z,944.68
2022-12-11T09:22:33.674Z,944.68
2022-12-11T09:23:33.657Z,944.68
2022-12-11T09:24:33.632Z,944.58
2022-12-11T09:25:33.642Z,944.61
2022-12-11T09:26:33.589Z,944.64
2022-12-11T09:27:33.569Z,944.62
2022-12-11T09:28:33.547Z,944.66
2022-12-11T09:29:33.528Z,944.72
2022-12-11T09:30:33.537Z,944.74
2022-12-11T09:31:33.484Z,944.72
2022-12-11T09:32:33.461Z,944.78
2022-12-11T09:33:33.443Z,944.74
2022-12-11T09:34:33.420Z,944.74
2022-12-11T09:35:33.399Z,944.71
2022-12-11T09:36:33.374Z,944.72
2022-12-11T09:37:33.355Z,944.73
2022-12-11T09:38:33.334Z,944.69
2022-12-11T09:39:33.314Z,944.68
2022-12-11T09:40:33.289Z,944.68
2022-12-11T09:41:33.297Z,944.74
2022-12-11T09:42:33.246Z,944.64
2022-12-11T09:43:33.230Z,944.65
2022-12-11T09:44:33.202Z,944.65
2022-12-11T09:45:33.183Z,944.67
2022-12-11T09:46:34.263Z,944.66
2022-12-11T09:47:33.142Z,944.68
2022-12-11T09:48:33.126Z,944.62
2022-12-11T09:49:33.097Z,944.6
2022-12-11T09:50:33.077Z,944.59
2022-12-11T09:51:33.055Z,944.65
2022-12-11T09:52:33.034Z,944.61
2022-12-11T09:53:34.340Z,944.62
2022-12-11T09:54:32.992Z,944.66
2022-12-11T09:55:32.967Z,944.63
2022-12-11T09:56:32.950Z,944.56
2022-12-11T09:57:32.957Z,944.57
2022-12-11T09:58:32.905Z,944.53
2022-12-11T09:59:32.881Z,944.53
2022-12-11T10:00:32.865Z,944.58
2022-12-11T10:01:32.848Z,944.52
2022-12-11T10:02:32.845Z,944.55
2022-12-11T10:03:32.802Z,944.58
2022-12-11T10:04:32.780Z,944.53
2022-12-11T10:05:32.761Z,944.54
2022-12-11T10:06:32.737Z,944.53
2022-12-11T10:07:32.714Z,944.54
2022-12-11T10:08:32.692Z,944.56
2022-12-11T10:09:32.671Z,944.52
2022-12-11T10:10:32.648Z,944.54
2022-12-11T10:11:32.626Z,944.53
2022-12-11T10:12:32.606Z,944.51
2022-12-11T10:13:32.612Z,944.54
2022-12-11T10:14:32.600Z,944.52
2022-12-11T10:15:32.596Z,944.5
2022-12-11T10:16:32.523Z,944.53
2022-12-11T10:17:32.498Z,944.47
2022-12-11T10:18:32.478Z,944.45
2022-12-11T10:19:32.461Z,944.47
2022-12-11T10:20:32.437Z,944.5
2022-12-11T10:21:32.414Z,944.46
2022-12-11T10:22:32.395Z,944.47
2022-12-11T10:23:32.372Z,944.46
2022-12-11T10:25:07.423Z,944.47
2022-12-11T10:25:33.126Z,944.54
2022-12-11T10:26:33.109Z,944.49
2022-12-11T10:27:33.083Z,944.57
2022-12-11T10:28:33.065Z,944.51
2022-12-11T10:29:33.064Z,944.49
2022-12-11T10:30:34.573Z,944.5
2022-12-11T10:31:33.032Z,944.52
2022-12-11T10:32:32.979Z,944.47
2022-12-11T10:33:32.956Z,944.48
2022-12-11T10:34:32.935Z,944.49
2022-12-11T10:35:32.913Z,944.46
2022-12-11T10:36:32.894Z,944.46
2022-12-11T10:37:32.873Z,944.45
2022-12-11T10:38:32.850Z,944.45
2022-12-11T10:39:32.835Z,944.41
2022-12-11T10:40:32.811Z,944.4
2022-12-11T10:41:32.788Z,944.46
2022-12-11T10:42:32.767Z,944.49
2022-12-11T10:43:32.745Z,944.44
2022-12-11T10:44:32.723Z,944.49
2022-12-11T10:45:32.729Z,944.45
2022-12-11T10:46:32.703Z,944.45
2022-12-11T10:47:32.664Z,944.47
2022-12-11T10:48:32.637Z,944.44
2022-12-11T10:49:32.620Z,944.43
2022-12-11T10:50:32.844Z,944.43
2022-12-11T10:51:32.826Z,944.42
2022-12-11T10:52:32.800Z,944.39
2022-12-11T10:53:32.780Z,944.39
2022-12-11T10:54:32.758Z,944.38
2022-12-11T10:55:32.741Z,944.33
2022-12-11T10:56:32.715Z,944.35
2022-12-11T10:57:32.697Z,944.31
2022-12-11T10:58:32.675Z,944.32
2022-12-11T10:59:32.652Z,944.34
2022-12-11T11:00:32.631Z,944.31
2022-12-11T11:01:32.688Z,944.31
2022-12-11T11:02:32.625Z,944.28
2022-12-11T11:03:32.569Z,944.27
2022-12-11T11:04:32.545Z,944.26
2022-12-11T11:05:32.525Z,944.3
2022-12-11T11:06:32.505Z,944.23
2022-12-11T11:07:32.483Z,944.28
2022-12-11T11:08:32.488Z,944.24
2022-12-11T11:09:32.441Z,944.28
2022-12-11T11:10:32.419Z,944.26
2022-12-11T11:11:33.790Z,944.25
2022-12-11T11:12:32.375Z,944.22
2022-12-11T11:13:32.368Z,944.23
2022-12-11T11:14:32.334Z,944.16
2022-12-11T11:15:32.319Z,944.17
2022-12-11T11:16:32.351Z,944.17
2022-12-11T11:17:35.037Z,944.16
2022-12-11T11:18:32.251Z,944.15
2022-12-11T11:19:32.229Z,944.15
2022-12-11T11:20:32.204Z,944.15
2022-12-11T11:21:32.184Z,944.13
2022-12-11T11:22:32.162Z,944.14
2022-12-11T11:23:32.143Z,944.16
2022-12-11T11:24:32.121Z,944.18
2022-12-11T11:25:32.099Z,944.21
2022-12-11T11:26:56.507Z,944.15
2022-12-11T11:27:32.056Z,944.13
2022-12-11T11:28:32.038Z,944.13
2022-12-11T11:29:32.052Z,944.06
2022-12-11T11:30:31.994Z,944.09
2022-12-11T11:31:32.048Z,944.08
2022-12-11T11:32:31.953Z,944.04
2022-12-11T11:33:31.950Z,944.02
2022-12-11T11:34:31.910Z,944.02
2022-12-11T11:35:31.885Z,943.97
2022-12-11T11:36:31.866Z,944.01
2022-12-11T11:37:31.853Z,943.95
2022-12-11T11:38:31.823Z,943.97
2022-12-11T11:39:31.801Z,943.94
2022-12-11T11:40:31.780Z,943.92
2022-12-11T11:41:31.757Z,943.93
2022-12-11T11:42:31.740Z,943.97
2022-12-11T11:43:31.716Z,943.97
2022-12-11T11:44:31.699Z,943.94
2022-12-11T11:45:31.678Z,943.93
2022-12-11T11:46:31.694Z,943.95
2022-12-11T11:47:31.632Z,943.91
2022-12-11T11:48:31.613Z,943.9
2022-12-11T11:49:31.616Z,943.89
2022-12-11T11:50:31.573Z,943.87
2022-12-11T11:51:31.548Z,943.9
2022-12-11T11:52:31.531Z,943.91
2022-12-11T11:53:31.505Z,943.9
2022-12-11T11:54:31.487Z,943.9
2022-12-11T11:55:31.469Z,943.93
2022-12-11T11:56:31.458Z,943.85
2022-12-11T11:57:31.424Z,943.85
2022-12-11T11:58:31.403Z,943.81
2022-12-11T11:59:31.382Z,943.82
2022-12-11T12:00:33.799Z,943.82
2022-12-11T12:01:31.335Z,943.76
2022-12-11T12:02:31.352Z,943.78
2022-12-11T12:03:31.295Z,943.77
2022-12-11T12:04:31.274Z,943.82
2022-12-11T12:05:31.280Z,943.8
2022-12-11T12:06:31.233Z,943.75
2022-12-11T12:07:31.214Z,943.76
2022-12-11T12:08:31.191Z,943.72
2022-12-11T12:09:31.222Z,943.71
2022-12-11T12:10:31.150Z,943.74
2022-12-11T12:11:31.126Z,943.68
2022-12-11T12:12:34.100Z,943.7
2022-12-11T12:13:48.950Z,943.71
2022-12-11T12:15:31.041Z,943.66
2022-12-11T12:17:31.022Z,943.62
2022-12-11T12:18:30.980Z,943.64
2022-12-11T12:19:30.957Z,943.6
2022-12-11T12:20:30.942Z,943.62
2022-12-11T12:21:30.954Z,943.59
2022-12-11T12:22:30.895Z,943.55
2022-12-11T12:23:36.397Z,943.52
2022-12-11T12:24:30.852Z,943.57
2022-12-11T12:25:30.833Z,943.5
2022-12-11T12:26:30.810Z,943.5
2022-12-11T12:27:51.387Z,943.5
2022-12-11T12:28:30.767Z,943.49
2022-12-11T12:29:30.750Z,943.48
2022-12-11T12:30:30.732Z,943.48
2022-12-11T12:31:30.750Z,943.49
2022-12-11T12:32:30.685Z,943.49
2022-12-11T12:33:30.664Z,943.48
2022-12-11T12:34:30.643Z,943.48
2022-12-11T12:35:30.623Z,943.47
2022-12-11T12:36:30.599Z,943.51
2022-12-11T12:37:30.605Z,943.45
2022-12-11T12:38:30.570Z,943.44
2022-12-11T12:39:30.540Z,943.44
2022-12-11T12:40:30.515Z,943.44
2022-12-11T12:41:30.494Z,943.48
2022-12-11T12:42:30.473Z,943.43
2022-12-11T12:43:30.554Z,943.46
2022-12-11T12:44:30.432Z,943.44
2022-12-11T12:45:30.494Z,943.44
2022-12-11T12:46:30.388Z,943.43
2022-12-11T12:47:30.369Z,943.47
2022-12-11T12:48:30.344Z,943.48